Time;durP1;ratioP1;P1;durP2;ratioP2;P2;SDS_P1;SDS_P2;PMS_P1;PMS_P2;Temp;Humidity;BMP_temperature;BMP_pressure;BME280_temperature;BME280_humidity;BME280_pressure;Samples;Min_cycle;Max_cycle;Signal;HPM_P1;HPM_P2
2022/04/17 00:01:04;;;;;;;;;;;;;;;;;;20992809;28;19927;-66
2022/04/17 00:11:06;;;;;;;;;;;;;;;;;;21003453;28;20021;-64
2022/04/17 00:21:08;;;;;;;;;;;;;;;;;;21008397;28;19920;-68
2022/04/17 00:31:10;;;;;;;;;;;;;;;;;;21007701;28;19920;-65
2022/04/17 00:41:12;;;;;;;;;;;;;;;;;;20988488;28;20330;-69
2022/04/17 00:51:16;;;;;;;;;;;;;;;;;;21006167;28;19924;-63
2022/04/17 01:01:17;;;;;;;;;;;;;;;;;;21005850;28;19927;-65
2022/04/17 01:11:19;;;;;;;;;;;;;;;;;;21005666;28;20321;-64
2022/04/17 01:21:22;;;;;;;;;;;;;;;;;;21004091;28;19967;-64
2022/04/17 01:31:29;;;;;;;;;;;;;;;;;;21003258;28;19931;-66
2022/04/17 01:41:38;;;;;;;;;;;;;;;;;;21002393;28;20047;-67
2022/04/17 01:51:54;;;;;;;;;;;;;;;;;;21002142;28;20002;-70
2022/04/17 02:02:00;;;;;;;;;;;;;;;;;;21000953;28;19920;-65
2022/04/17 02:12:09;;;;;;;;;;;;;;;;;;21001365;28;19920;-68
2022/04/17 02:22:17;;;;;;;;;;;;;;;;;;20999103;28;19920;-70
2022/04/17 02:32:21;;;;;;;;;;;;;;;;;;20997233;28;19924;-64
2022/04/17 02:42:29;;;;;;;;;;;;;;;;;;20997648;28;19920;-65
2022/04/17 02:52:32;;;;;;;;;;;;;;;;;;20997038;28;20267;-65
2022/04/17 03:12:59;;;;;;;;;;;;;;;;;;20996191;28;19929;-66
2022/04/17 03:23:02;;;;;;;;;;;;;;;;;;20994537;28;19921;-64
2022/04/17 03:33:06;;;;;;;;;;;;;;;;;;20994563;28;19921;-65
2022/04/17 03:43:11;;;;;;;;;;;;;;;;;;21004462;28;20048;-70
2022/04/17 03:53:14;;;;;;;;;;;;;;;;;;21021007;28;19920;-66
2022/04/17 04:03:18;;;;;;;;;;;;;;;;;;21021249;28;20027;-64
2022/04/17 04:13:21;;;;;;;;;;;;;;;;;;21020885;28;19946;-64
2022/04/17 04:23:26;;;;;;;;;;;;;;;;;;21019730;28;19920;-64
2022/04/17 04:33:32;;;;;;;;;;;;;;;;;;21020487;28;19920;-67
2022/04/17 04:43:34;;;;;;;;;;;;;;;;;;21018719;28;19920;-62
2022/04/17 04:53:39;;;;;;;;;;;;;;;;;;21014585;28;19924;-63
2022/04/17 05:03:41;;;;;;;;;;;;;;;;;;21004914;28;20027;-65
2022/04/17 05:13:43;;;;;;;;;;;;;;;;;;21004720;28;19927;-64
2022/04/17 05:23:46;;;;;;;;;;;;;;;;;;20986525;28;19920;-65
2022/04/17 05:33:48;;;;;;;;;;;;;;;;;;21006269;28;19962;-64
2022/04/17 05:43:51;;;;;;;;;;;;;;;;;;21002823;28;19924;-64
2022/04/17 05:53:54;;;;;;;;;;;;;;;;;;21001347;28;19924;-65
2022/04/17 06:03:56;;;;;;;;;;;;;;;;;;21001012;28;19924;-64
2022/04/17 06:13:58;;;;;;;;;;;;;;;;;;21000618;28;20408;-63
2022/04/17 06:24:00;;;;;;;;;;;;;;;;;;21000078;28;19920;-62
2022/04/17 06:34:03;;;;;;;;;;;;;;;;;;20997896;28;19920;-63
2022/04/17 06:44:05;;;;;;;;;;;;;;;;;;20996869;28;19920;-63
2022/04/17 06:54:08;;;;;;;;;;;;;;;;;;20996664;28;19920;-63
2022/04/17 07:04:10;;;;;;;;;;;14.00;55.50;;;;;;20996241;28;19924;-62
2022/04/17 07:14:14;;;;;;;;;;;14.20;54.80;;;;;;20996465;28;19994;-64
2022/04/17 07:24:17;;;;;;;;;;;14.90;52.70;;;;;;20995685;28;19970;-65
2022/04/17 07:34:21;;;;;;;;;;;15.40;51.20;;;;;;20994710;28;19927;-65
2022/04/17 07:44:26;;;;;;;;;;;;;;;;;;20994902;28;20356;-65
2022/04/17 07:54:29;;;;;;;;;;;;;;;;;;20994926;28;19934;-65
2022/04/17 08:04:31;;;;;;;;;;;;;;;;;;20993345;28;20044;-66
2022/04/17 08:14:33;;;;;;;;;;;;;;;;;;20992884;28;19920;-67
2022/04/17 08:24:35;;;;;;;;;;;;;;;;;;20992679;28;19927;-69
2022/04/17 08:34:37;;;;;;;;;;;;;;;;;;21005885;28;19990;-70
2022/04/17 08:44:39;;;;;;;;;;;;;;;;;;21006806;28;19976;-70
2022/04/17 08:54:42;;;;;;;;;;;;;;;;;;21006114;28;19920;-65
2022/04/17 09:04:44;;;;;;;;;;;;;;;;;;21005516;28;19993;-64
2022/04/17 09:14:48;;;;;;;;;;;;;;;;;;21006137;28;20385;-64
2022/04/17 09:24:50;;;;;;;;;;;;;;;;;;21003996;28;19920;-66
2022/04/17 09:34:55;;;;;;;;;;;;;;;;;;21002920;28;19946;-67
2022/04/17 09:44:57;;;;;;;;;;;;;;;;;;21001714;28;20006;-66
2022/04/17 09:55:00;;;;;;;;;;;;;;;;;;21001383;28;19932;-65
2022/04/17 10:05:05;;;;;;;;;;;;;;;;;;21000321;28;20336;-66
2022/04/17 10:15:08;;;;;;;;;;;;;;;;;;20999930;28;19964;-64
2022/04/17 10:25:12;;;;;;;;;;;;;;;;;;20980744;28;19924;-64
2022/04/17 10:35:15;;;;;;;;;;;;;;;;;;20997657;28;19920;-68
2022/04/17 10:45:17;;;;;;;;;;;;;;;;;;20996878;28;19925;-67
2022/04/17 10:55:23;;;;;;;;;;;;;;;;;;20996157;28;19943;-69
2022/04/17 11:05:26;;;;;;;;;;;;;;;;;;20995384;28;19920;-70
2022/04/17 11:15:29;;;;;;;;;;;;;;;;;;20996767;28;19920;-67
2022/04/17 11:25:34;;;;;;;;;;;;;;;;;;20996150;28;19920;-65
2022/04/17 11:35:36;;;;;;;;;;;;;;;;;;21008100;28;20301;-67
2022/04/17 11:45:39;;;;;;;;;;;;;;;;;;21009456;28;19927;-70
2022/04/17 11:55:41;;;;;;;;;;;;;;;;;;20994865;28;19924;-69
2022/04/17 12:05:43;;;;;;;;;;;;;;;;;;21002052;28;19920;-69
2022/04/17 12:15:44;;;;;;;;;;;;;;;;;;21009186;28;20006;-71
2022/04/17 12:25:46;;;;;;;;;;;;;;;;;;21007902;28;19964;-66
2022/04/17 12:35:48;;;;;;;;;;;;;;;;;;21006659;28;19928;-69
2022/04/17 12:45:50;;;;;;;;;;;;;;;;;;21005364;28;19928;-70
2022/04/17 12:55:55;;;;;;;;;;;;;;;;;;21005434;28;20019;-70
2022/04/17 13:05:57;;;;;;;;;;;;;;;;;;21004910;28;19927;-69
2022/04/17 13:15:59;;;;;;;;;;;;;;;;;;21004140;28;19946;-70
2022/04/17 13:26:01;;;;;;;;;;;;;;;;;;20986958;28;19968;-68
2022/04/17 13:36:04;;;;;;;;;;;;;;;;;;21003350;28;19927;-69
2022/04/17 13:46:06;;;;;;;;;;;;;;;;;;21001080;28;19999;-71
2022/04/17 13:56:08;;;;;;;;;;;;;;;;;;21000534;28;19974;-69
2022/04/17 14:06:10;;;;;;;;;;;;;;;;;;21000071;28;19967;-70
2022/04/17 14:16:12;;;;;;;;;;;;;;;;;;20981031;28;19927;-71
2022/04/17 14:26:14;;;;;;;;;;;;;;;;;;20999684;28;20291;-70
2022/04/17 14:36:17;;;;;;;;;;;;;;;;;;20997252;28;19920;-70
2022/04/17 14:46:19;;;;;;;;;;;;;;;;;;20996445;28;20315;-69
2022/04/17 14:56:21;;;;;;;;;;;;;;;;;;20996570;28;20362;-71
2022/04/17 15:06:23;;;;;;;;;;;;;;;;;;20995580;28;20340;-70
2022/04/17 15:16:25;;;;;;;;;;;;;;;;;;20994956;28;20015;-71
2022/04/17 15:26:27;;;;;;;;;;;;;;;;;;20976696;28;20342;-70
2022/04/17 15:36:28;;;;;;;;;;;;;;;;;;20994691;28;19928;-71
2022/04/17 15:56:50;;;;;;;;;;;;;;;;;;20993809;28;19924;-71
2022/04/17 16:06:52;;;;;;;;;;;;;;;;;;20994031;28;19921;-67
2022/04/17 16:16:54;;;;;;;;;;;;;;;;;;20992493;28;19921;-68
2022/04/17 16:26:56;;;;;;;;;;;;;;;;;;20993337;28;19921;-65
2022/04/17 16:36:58;;;;;;;;;;;;;;;;;;20990973;28;19924;-69
2022/04/17 16:46:59;;;;;;;;;;;;;;;;;;20990304;28;19920;-69
2022/04/17 16:59:11;;;;;;;;;;;;;;;;;;21004620;28;19924;-66
2022/04/17 17:07:23;;;;;;;;;;;;;;;;;;21004904;28;19920;-67
2022/04/17 17:17:25;;;;;;;;;;;;;;;;;;21004855;28;20306;-67
2022/04/17 17:27:27;;;;;;;;;;;;;;;;;;21003353;28;19920;-67
2022/04/17 17:37:29;;;;;;;;;;;;;;;;;;21003813;28;19921;-65
2022/04/17 17:47:31;;;;;;;;;;;;;;;;;;21001567;28;19928;-65
2022/04/17 17:57:33;;;;;;;;;;;;;;;;;;20983540;28;20370;-64
2022/04/17 18:17:55;;;;;;;;;;;;;;;;;;21001385;28;19924;-66
2022/04/17 18:27:56;;;;;;;;;;;;;;;;;;20999722;28;19920;-66
2022/04/17 18:37:58;;;;;;;;;;;;;;;;;;20979451;28;19920;-65
2022/04/17 18:48:01;;;;;;;;;;;;;;;;;;20979139;28;19920;-65
2022/04/17 18:58:03;;;;;;;;;;;;;;;;;;20996376;28;19921;-66
2022/04/17 19:08:04;;;;;;;;;;;;;;;;;;20996385;28;19928;-67
2022/04/17 19:18:06;;;;;;;;;;;;;;;;;;20994995;28;20266;-67
2022/04/17 19:28:08;;;;;;;;;;;;;;;;;;20994656;28;20289;-68
2022/04/17 19:38:10;;;;;;;;;;;;;;;;;;20994601;28;19974;-67
2022/04/17 19:48:12;;;;;;;;;;;;;;;;;;20992907;28;19924;-69
2022/04/17 19:58:13;;;;;;;;;;;;;;;;;;20992785;28;19982;-71
2022/04/17 20:08:15;;;;;;;;;;;;;;;;;;20992748;28;19928;-66
2022/04/17 20:18:17;;;;;;;;;;;;;;;;;;20992334;28;19921;-70
2022/04/17 20:28:19;;;;;;;;;;;;;;;;;;21003191;28;19966;-70
2022/04/17 20:38:20;;;;;;;;;;;;;;;;;;21007778;28;20384;-70
2022/04/17 20:58:43;;;;;;;;;;;;;;;;;;21007880;28;19921;-72
2022/04/17 21:08:46;;;;;;;;;;;;;;;;;;21005391;28;19927;-69
2022/04/17 21:18:48;;;;;;;;;;;;;;;;;;21005617;28;19927;-66
2022/04/17 21:28:50;;;;;;;;;;;;;;;;;;21003482;28;20001;-68
2022/04/17 21:38:53;;;;;;;;;;;;;;;;;;21003352;28;20438;-67
2022/04/17 21:48:54;;;;;;;;;;;;;;;;;;21002055;28;20007;-67
2022/04/17 21:58:56;;;;;;;;;;;;;;;;;;20983794;28;19920;-65
2022/04/17 22:08:59;;;;;;;;;;;;;;;;;;21001301;28;20366;-67
2022/04/17 22:19:02;;;;;;;;;;;20.40;37.10;;;;;;20999874;28;19924;-69
2022/04/17 22:29:04;;;;;;;;;;;20.10;37.60;;;;;;20981963;28;19924;-66
2022/04/17 22:39:05;;;;;;;;;;;20.00;38.20;;;;;;20998315;28;20309;-64
2022/04/17 22:49:06;;;;;;;;;;;19.90;38.60;;;;;;20996247;28;20405;-70
2022/04/17 22:59:08;;;;;;;;;;;19.70;39.00;;;;;;20996767;28;20331;-66
2022/04/17 23:09:09;;;;;;;;;;;19.70;39.10;;;;;;20996185;28;19928;-63
2022/04/17 23:19:11;;;;;;;;;;;19.70;38.60;;;;;;20977087;28;20387;-63
2022/04/17 23:29:13;;;;;;;;;;;19.90;37.50;;;;;;20996299;28;20053;-63
2022/04/17 23:39:16;;;;;;;;;;;19.80;37.70;;;;;;20994033;28;19924;-64
2022/04/17 23:49:18;;;;;;;;;;;19.90;38.20;;;;;;20993825;28;20036;-64
2022/04/17 23:59:19;;;;;;;;;;;19.80;38.30;;;;;;20999503;28;19975;-63
